Time;durP1;ratioP1;P1;durP2;ratioP2;P2;SDS_P1;SDS_P2;PMS_P1;PMS_P2;Temp;Humidity;BMP_temperature;BMP_pressure;BME280_temperature;BME280_humidity;BME280_pressure;Samples;Min_cycle;Max_cycle;Signal;HPM_P1;HPM_P2
2023/09/16 00:00:34;;;;;;;15.98;14.18;;;;;;;;;;5106458;28;20051;-76
2023/09/16 00:03:00;;;;;;;16.00;14.30;;;;;;;;;;5104669;28;20040;-76
2023/09/16 00:05:27;;;;;;;20.02;17.50;;;;;;;;;;5109984;28;20047;-76
2023/09/16 00:07:53;;;;;;;17.10;15.30;;;;;;;;;;5096647;28;20074;-76
2023/09/16 00:10:19;;;;;;;17.95;15.88;;;;;;;;;;5110523;28;20469;-76
2023/09/16 00:12:45;;;;;;;20.08;16.17;;;;;;;;;;5096788;28;20087;-76
2023/09/16 00:15:11;;;;;;;19.42;15.63;;;;;;;;;;5103262;28;20062;-76
2023/09/16 00:17:37;;;;;;;18.35;16.17;;;;;;;;;;5107718;28;20119;-76
2023/09/16 00:20:16;;;;;;;18.17;16.08;;;;;;;;;;5098835;28;20047;-76
2023/09/16 00:22:42;;;;;;;17.98;15.07;;;;;;;;;;5111775;28;20044;-76
2023/09/16 00:25:09;;;;;;;19.30;15.57;;;;;;;;;;5108666;28;20443;-76
2023/09/16 00:27:35;;;;;;;17.73;15.88;;;;;;;;;;5102525;28;20043;-76
2023/09/16 00:30:03;;;;;;;19.05;15.77;;;;;;;;;;5106363;28;20132;-76
2023/09/16 00:32:29;;;;;;;14.80;13.23;;;;;;;;;;5112578;28;20051;-76
2023/09/16 00:34:55;;;;;;;12.55;11.32;;;;;;;;;;5112249;28;20114;-76
2023/09/16 00:37:21;;;;;;;13.38;11.98;;;;;;;;;;5106309;28;20056;-76
2023/09/16 00:39:47;;;;;;;14.85;12.07;;;;;;;;;;5101920;28;20063;-76
2023/09/16 00:42:13;;;;;;;14.75;13.15;;;;;;;;;;5109182;28;20047;-76
2023/09/16 00:44:39;;;;;;;15.32;12.48;;;;;;;;;;5098714;28;20047;-76
2023/09/16 00:47:05;;;;;;;16.77;13.63;;;;;;;;;;5109576;28;20027;-76
2023/09/16 00:49:31;;;;;;;17.27;15.30;;;;;;;;;;5101720;28;20512;-76
2023/09/16 00:51:58;;;;;;;17.42;14.55;;;;;;;;;;5113858;28;20499;-76
2023/09/16 00:54:24;;;;;;;15.38;13.75;;;;;;;;;;5109219;28;20040;-76
2023/09/16 00:56:50;;;;;;;13.95;12.43;;;;;;;;;;5105954;28;20080;-76
2023/09/16 00:59:20;;;;;;;14.48;12.98;;;;;;;;;;5114706;28;20055;-76
2023/09/16 01:01:49;;;;;;;13.57;12.27;;;;;;;;;;5113647;28;20054;-76
2023/09/16 01:04:16;;;;;;;14.35;12.05;;;;;;;;;;5104290;28;20120;-76
2023/09/16 01:06:43;;;;;;;8.43;7.47;;;;;;;;;;5104371;28;20048;-76
2023/09/16 01:09:10;;;;;;;7.70;6.90;;;;;;;;;;5113562;28;20479;-76
2023/09/16 01:11:38;;;;;;;7.65;6.95;;;;;;;;;;5103364;28;20048;-76
2023/09/16 01:14:05;;;;;;;6.35;5.75;;;;;;;;;;5109467;28;20044;-76
2023/09/16 01:16:44;;;;;;;8.30;6.28;;;;;;;;;;5097897;28;20051;-76
2023/09/16 01:19:13;;;;;;;7.90;6.80;;;;;;;;;;5105486;28;20526;-76
2023/09/16 01:21:39;;;;;;;7.22;6.50;;;;;;;;;;5130224;27;20138;-76
2023/09/16 01:24:25;;;;;;;7.30;6.57;;;;;;;;;;5105273;27;20031;-76
2023/09/16 01:26:51;;;;;;;6.60;6.00;;;;;;;;;;5119582;27;20059;-76
2023/09/16 01:29:17;;;;;;;7.15;6.45;;;;;;;;;;5109003;28;20092;-76
2023/09/16 01:31:44;;;;;;;7.82;7.13;;;;;;;;;;5112705;28;20040;-76
2023/09/16 01:34:33;;;;;;;9.07;7.93;;;;;;;;;;5103537;28;20108;-76
2023/09/16 01:37:00;;;;;;;8.82;7.93;;;;;;;;;;5110935;28;20050;-76
2023/09/16 01:39:29;;;;;;;10.20;9.10;;;;;;;;;;5102367;28;20047;-76
2023/09/16 01:41:56;;;;;;;9.82;8.82;;;;;;;;;;5111108;28;20047;-76
2023/09/16 01:44:22;;;;;;;10.15;8.98;;;;;;;;;;5108913;28;20040;-76
2023/09/16 01:46:48;;;;;;;11.45;10.30;;;;;;;;;;5111141;28;20036;-76
2023/09/16 01:49:14;;;;;;;10.52;9.43;;;;;;;;;;5108220;28;20039;-76
2023/09/16 01:51:40;;;;;;;11.82;9.98;;;;;;;;;;5098571;28;20154;-76
2023/09/16 01:54:07;;;;;;;11.60;8.65;;;;;;;;;;5107072;28;20054;-76
2023/09/16 01:56:33;;;;;;;12.65;10.35;;;;;;;;;;5102447;28;20437;-76
2023/09/16 01:58:59;;;;;;;14.05;11.50;;;;;;;;;;5114829;28;20073;-76
2023/09/16 02:01:25;;;;;;;17.35;14.82;;;;;;;;;;5100580;28;20041;-76
2023/09/16 02:03:52;;;;;;;17.17;13.45;;;;;;;;;;5100910;27;20094;-76
2023/09/16 02:06:18;;;;;;;15.98;14.07;;;;;;;;;;5113893;27;20401;-76
2023/09/16 02:08:44;;;;;;;18.17;15.00;;;;;;;;;;5111123;28;20071;-76
2023/09/16 02:11:10;;;;;;;19.65;14.80;;;;;;;;;;5110261;28;20040;-76
2023/09/16 02:13:36;;;;;;;16.85;14.50;;;;;;;;;;5102439;28;20434;-76
2023/09/16 02:16:02;;;;;;;15.77;13.77;;;;;;;;;;5105928;28;20048;-76
2023/09/16 02:18:29;;;;;;;16.15;13.65;;;;;;;;;;5096863;28;20078;-75
2023/09/16 02:20:55;;;;;;;12.77;11.40;;;;;;;;;;5099041;28;20036;-76
2023/09/16 02:23:22;;;;;;;12.80;11.43;;;;;;;;;;5108249;28;20067;-76
2023/09/16 02:25:48;;;;;;;16.92;13.57;;;;;;;;;;5106860;28;20081;-76
2023/09/16 02:28:14;;;;;;;15.20;13.02;;;;;;;;;;5114572;28;20078;-76
2023/09/16 02:30:40;;;;;;;15.77;12.35;;;;;;;;;;5105285;28;20044;-76
2023/09/16 02:33:06;;;;;;;13.60;10.02;;;;;;;;;;5109793;28;20066;-76
2023/09/16 02:35:33;;;;;;;10.65;9.55;;;;;;;;;;5108831;28;20039;-76
2023/09/16 02:38:02;;;;;;;11.88;9.82;;;;;;;;;;5095659;27;20085;-76
2023/09/16 02:40:28;;;;;;;10.48;8.85;;;;;;;;;;5105799;28;20047;-76
2023/09/16 02:42:54;;;;;;;7.55;6.85;;;;;;;;;;5114263;28;20375;-76
2023/09/16 02:45:20;;;;;;;7.50;6.80;;;;;;;;;;5109472;28;20479;-76
2023/09/16 02:47:46;;;;;;;6.97;6.38;;;;;;;;;;5113259;28;20084;-76
2023/09/16 02:50:12;;;;;;;8.30;7.50;;;;;;;;;;5102933;28;20046;-76
2023/09/16 02:52:38;;;;;;;8.15;7.30;;;;;;;;;;5112388;28;20405;-76
2023/09/16 02:55:05;;;;;;;8.48;7.68;;;;;;;;;;5101889;28;20036;-76
2023/09/16 02:57:31;;;;;;;8.55;7.68;;;;;;;;;;5094905;28;20043;-76
2023/09/16 02:59:57;;;;;;;8.38;7.25;;;;;;;;;;5101672;28;20051;-76
2023/09/16 03:02:23;;;;;;;8.93;5.95;;;;;;;;;;5098730;28;20058;-76
2023/09/16 03:04:50;;;;;;;7.80;7.10;;;;;;;;;;5102648;28;20101;-76
2023/09/16 03:07:16;;;;;;;9.18;8.23;;;;;;;;;;5102824;28;20052;-76
2023/09/16 03:09:42;;;;;;;9.07;8.13;;;;;;;;;;5098046;28;20119;-76
2023/09/16 03:12:08;;;;;;;10.35;8.55;;;;;;;;;;5096577;28;20090;-76
2023/09/16 03:14:34;;;;;;;8.27;7.45;;;;;;;;;;5099757;28;20044;-76
2023/09/16 03:17:00;;;;;;;7.70;7.00;;;;;;;;;;5112856;28;20036;-76
2023/09/16 03:19:28;;;;;;;7.15;6.45;;;;;;;;;;5097550;28;20040;-76
2023/09/16 03:21:54;;;;;;;10.70;8.15;;;;;;;;;;5109326;28;20054;-76
2023/09/16 03:24:20;;;;;;;10.27;8.40;;;;;;;;;;5113436;28;20059;-76
2023/09/16 03:26:46;;;;;;;13.73;11.35;;;;;;;;;;5113578;28;20051;-76
2023/09/16 03:29:12;;;;;;;13.07;10.77;;;;;;;;;;5109672;28;20043;-75
2023/09/16 03:31:38;;;;;;;16.58;12.68;;;;;;;;;;5098566;28;20036;-76
2023/09/16 03:34:05;;;;;;;13.75;12.02;;;;;;;;;;5111638;28;20052;-76
2023/09/16 03:36:31;;;;;;;12.45;10.75;;;;;;;;;;5115185;28;20053;-75
2023/09/16 03:38:57;;;;;;;10.57;8.95;;;;;;;;;;5117100;28;20046;-76
2023/09/16 03:41:23;;;;;;;9.13;7.70;;;;;;;;;;5112817;28;20043;-76
2023/09/16 03:43:49;;;;;;;8.68;7.70;;;;;;;;;;5107832;28;20150;-76
2023/09/16 03:46:15;;;;;;;8.07;7.22;;;;;;;;;;5113466;28;20074;-76
2023/09/16 03:48:41;;;;;;;8.48;7.32;;;;;;;;;;5105277;28;20364;-76
2023/09/16 03:51:07;;;;;;;6.28;5.57;;;;;;;;;;5112741;28;20531;-76
2023/09/16 03:53:36;;;;;;;6.95;6.35;;;;;;;;;;5103230;28;20043;-76
2023/09/16 03:56:05;;;;;;;8.07;6.72;;;;;;;;;;5100171;28;20066;-76
2023/09/16 03:58:31;;;;;;;7.80;7.10;;;;;;;;;;5102723;28;20055;-76
2023/09/16 04:00:57;;;;;;;7.40;6.70;;;;;;;;;;5109549;28;20115;-76
2023/09/16 04:03:23;;;;;;;8.38;7.57;;;;;;;;;;5105924;28;20070;-76
2023/09/16 04:05:54;;;;;;;7.85;6.80;;;;;;;;;;5101161;28;20040;-76
2023/09/16 04:08:20;;;;;;;7.50;6.70;;;;;;;;;;5107347;28;20114;-76
2023/09/16 04:10:46;;;;;;;9.02;7.00;;;;;;;;;;5099310;28;20039;-76
2023/09/16 04:13:13;;;;;;;8.13;7.38;;;;;;;;;;5099043;28;20043;-76
2023/09/16 04:15:39;;;;;;;9.52;8.48;;;;;;;;;;5096521;28;20055;-76
2023/09/16 04:18:05;;;;;;;8.80;7.90;;;;;;;;;;5113269;28;20039;-76
2023/09/16 04:20:31;;;;;;;10.90;9.45;;;;;;;;;;5100042;28;20495;-76
2023/09/16 04:22:57;;;;;;;12.95;9.73;;;;;;;;;;5096188;28;20078;-76
2023/09/16 04:25:24;;;;;;;13.10;11.05;;;;;;;;;;5097369;28;20491;-76
2023/09/16 04:27:50;;;;;;;14.25;11.73;;;;;;;;;;5106933;28;20159;-76
2023/09/16 04:30:16;;;;;;;14.05;12.30;;;;;;;;;;5107566;28;20058;-76
2023/09/16 04:32:42;;;;;;;14.10;12.38;;;;;;;;;;5115785;28;20044;-76
2023/09/16 04:35:09;;;;;;;12.35;11.00;;;;;;;;;;5111098;28;20042;-76
2023/09/16 04:37:36;;;;;;;12.80;10.35;;;;;;;;;;5116746;28;20087;-76
2023/09/16 04:40:09;;;;;;;13.00;11.30;;;;;;;;;;5110782;27;20119;-76
2023/09/16 04:42:35;;;;;;;13.27;11.50;;;;;;;;;;5115669;28;20068;-76
2023/09/16 04:45:02;;;;;;;13.27;11.20;;;;;;;;;;5100040;28;20046;-76
2023/09/16 04:47:28;;;;;;;12.50;11.20;;;;;;;;;;5115920;28;20418;-76
2023/09/16 04:49:54;;;;;;;11.13;10.00;;;;;;;;;;5121168;27;20394;-76
2023/09/16 04:52:21;;;;;;;11.40;9.25;;;;;;;;;;5119100;27;20123;-76
2023/09/16 04:54:47;;;;;;;11.40;10.20;;;;;;;;;;5109942;28;20420;-76
2023/09/16 04:57:13;;;;;;;14.07;10.77;;;;;;;;;;5103194;28;20123;-76
2023/09/16 04:59:39;;;;;;;11.18;10.07;;;;;;;;;;5110937;28;20047;-76
2023/09/16 05:02:05;;;;;;;11.43;10.27;;;;;;;;;;5103014;28;20127;-76
2023/09/16 05:04:32;;;;;;;14.65;10.48;;;;;;;;;;5109583;28;20454;-76
2023/09/16 05:06:58;;;;;;;12.88;10.63;;;;;;;;;;5102864;28;20057;-76
2023/09/16 05:09:24;;;;;;;11.82;10.57;;;;;;;;;;5102743;28;20039;-76
2023/09/16 05:11:50;;;;;;;9.70;8.70;;;;;;;;;;5105495;28;20039;-76
2023/09/16 05:14:16;;;;;;;12.45;9.50;;;;;;;;;;5114996;28;20042;-76
2023/09/16 05:16:42;;;;;;;9.88;8.93;;;;;;;;;;5107345;28;20131;-76
2023/09/16 05:19:09;;;;;;;12.18;10.88;;;;;;;;;;5115363;28;20040;-76
2023/09/16 05:21:35;;;;;;;12.65;11.35;;;;;;;;;;5116382;27;20074;-76
2023/09/16 05:24:01;;;;;;;13.32;12.00;;;;;;;;;;5115784;28;20032;-76
2023/09/16 05:26:27;;;;;;;11.63;10.43;;;;;;;;;;5116130;27;20126;-75
2023/09/16 05:28:53;;;;;;;9.10;8.20;;;;;;;;;;5103402;28;20048;-76
2023/09/16 05:31:20;;;;;;;9.70;8.77;;;;;;;;;;5118303;27;20109;-76
2023/09/16 05:33:46;;;;;;;10.60;9.40;;;;;;;;;;5112022;28;20048;-76
2023/09/16 05:36:12;;;;;;;9.00;8.10;;;;;;;;;;5115156;28;20048;-76
2023/09/16 05:38:38;;;;;;;7.97;7.28;;;;;;;;;;5104478;28;20177;-76
2023/09/16 05:41:04;;;;;;;7.38;6.78;;;;;;;;;;5108385;28;20123;-76
2023/09/16 05:43:30;;;;;;;9.57;8.60;;;;;;;;;;5120931;27;20044;-76
2023/09/16 05:45:56;;;;;;;8.98;8.18;;;;;;;;;;5109916;28;20044;-76
2023/09/16 05:48:24;;;;;;;9.50;8.70;;;;;;;;;;5095075;28;20119;-76
2023/09/16 05:51:00;;;;;;;9.23;8.38;;;;;;;;;;5113371;28;20128;-76
2023/09/16 05:53:26;;;;;;;9.77;8.88;;;;;;;;;;5100829;28;20047;-76
2023/09/16 05:55:56;;;;;;;9.30;8.40;;;;;;;;;;5109877;27;20052;-76
2023/09/16 05:58:22;;;;;;;10.20;9.30;;;;;;;;;;5107652;28;20048;-76
2023/09/16 06:00:57;;;;;;;9.63;8.63;;;;;;;;;;5107285;28;20050;-76
2023/09/16 06:03:24;;;;;;;10.30;9.40;;;;;;;;;;5108358;28;20040;-76
2023/09/16 06:05:50;;;;;;;9.18;8.45;;;;;;;;;;5110967;28;20032;-76
2023/09/16 06:08:16;;;;;;;9.60;8.70;;;;;;;;;;5115270;28;20039;-76
2023/09/16 06:10:42;;;;;;;9.23;8.43;;;;;;;;;;5113814;28;20104;-76
2023/09/16 06:13:08;;;;;;;8.95;8.15;;;;;;;;;;5100769;28;20047;-76
2023/09/16 06:15:34;;;;;;;8.95;8.15;;;;;;;;;;5098403;28;20114;-76
2023/09/16 06:18:00;;;;;;;10.27;9.38;;;;;;;;;;5106727;28;20084;-76
2023/09/16 06:20:26;;;;;;;9.38;8.57;;;;;;;;;;5110436;28;20067;-75
2023/09/16 06:22:52;;;;;;;9.98;9.10;;;;;;;;;;5105270;28;20067;-75
2023/09/16 06:25:18;;;;;;;9.52;8.73;;;;;;;;;;5113245;28;20042;-75
2023/09/16 06:27:44;;;;;;;11.93;10.73;;;;;;;;;;5106952;28;20463;-74
2023/09/16 06:30:10;;;;;;;18.92;16.92;;;;;;;;;;5104206;28;20039;-74
2023/09/16 06:32:36;;;;;;;20.42;18.23;;;;;;;;;;5112242;28;20048;-74
2023/09/16 06:35:02;;;;;;;23.48;20.50;;;;;;;;;;5113176;28;20185;-75
2023/09/16 06:37:28;;;;;;;21.98;19.67;;;;;;;;;;5113235;28;20052;-75
2023/09/16 06:39:54;;;;;;;31.67;24.88;;;;;;;;;;5111626;28;20062;-75
2023/09/16 06:42:20;;;;;;;29.30;25.05;;;;;;;;;;5105775;28;20106;-74
2023/09/16 06:44:52;;;;;;;33.05;27.75;;;;;;;;;;5107829;28;20115;-75
2023/09/16 06:47:19;;;;;;;30.73;27.27;;;;;;;;;;5108003;28;20386;-75
2023/09/16 06:49:45;;;;;;;32.95;29.35;;;;;;;;;;5106321;28;20036;-75
2023/09/16 06:52:11;;;;;;;33.17;27.20;;;;;;;;;;5096000;28;20055;-75
2023/09/16 06:54:37;;;;;;;30.92;26.45;;;;;;;;;;5109480;28;20095;-75
2023/09/16 06:57:03;;;;;;;30.70;26.52;;;;;;;;;;5106224;28;20043;-75
2023/09/16 06:59:30;;;;;;;33.55;26.73;;;;;;;;;;5113613;28;20077;-75
2023/09/16 07:01:57;;;;;;;30.98;25.00;;;;;;;;;;5106055;28;20051;-75
2023/09/16 07:04:25;;;;;;;28.48;23.42;;;;;;;;;;5098710;28;20066;-75
2023/09/16 07:06:52;;;;;;;27.13;23.25;;;;;;;;;;5112842;28;20062;-74
2023/09/16 07:09:18;;;;;;;24.58;20.70;;;;;;;;;;5103442;28;20052;-74
2023/09/16 07:11:44;;;;;;;26.40;23.55;;;;;;;;;;5105914;28;20059;-74
2023/09/16 07:14:11;;;;;;;28.55;23.63;;;;;;;;;;5105006;28;20043;-73
2023/09/16 07:16:40;;;;;;;26.40;22.20;;;;;;;;;;5105650;28;20155;-74
2023/09/16 07:19:06;;;;;;;28.45;22.75;;;;;;;;;;5109524;28;20040;-74
2023/09/16 07:21:32;;;;;;;24.13;20.98;;;;;;;;;;5099818;28;20052;-74
2023/09/16 07:24:01;;;;;;;21.58;19.33;;;;;;;;;;5106596;28;20373;-74
2023/09/16 07:26:30;;;;;;;26.67;21.30;;;;;;;;;;5106689;28;20055;-74
2023/09/16 07:28:57;;;;;;;22.30;19.80;;;;;;;;;;5113331;28;20032;-74
2023/09/16 07:31:23;;;;;;;25.38;20.40;;;;;;;;;;5103869;28;20481;-74
2023/09/16 07:33:49;;;;;;;22.75;20.30;;;;;;;;;;5112718;28;20403;-76
2023/09/16 07:36:15;;;;;;;23.00;19.42;;;;;;;;;;5097753;28;20048;-74
2023/09/16 07:38:41;;;;;;;20.85;18.58;;;;;;;;;;5107537;28;20100;-74
2023/09/16 07:41:07;;;;;;;24.83;19.55;;;;;;;;;;5104714;28;20108;-80
2023/09/16 07:43:33;;;;;;;20.02;17.92;;;;;;;;;;5098560;28;20048;-74
2023/09/16 07:45:59;;;;;;;22.77;19.10;;;;;;;;;;5100958;28;20081;-74
2023/09/16 07:48:25;;;;;;;20.05;17.25;;;;;;;;;;5110073;28;20040;-74
2023/09/16 07:50:52;;;;;;;21.50;18.33;;;;;;;;;;5104282;28;20078;-73
2023/09/16 07:53:18;;;;;;;19.45;17.45;;;;;;;;;;5101235;28;20044;-74
2023/09/16 07:55:44;;;;;;;20.52;17.88;;;;;;;;;;5104700;28;20044;-74
2023/09/16 07:58:10;;;;;;;22.35;19.25;;;;;;;;;;5102027;28;20514;-74
2023/09/16 08:00:36;;;;;;;19.67;17.58;;;;;;;;;;5113930;28;20046;-74
2023/09/16 08:03:02;;;;;;;20.48;18.25;;;;;;;;;;5117260;28;20043;-74
2023/09/16 08:05:28;;;;;;;18.45;16.55;;;;;;;;;;5105331;28;20040;-74
2023/09/16 08:07:54;;;;;;;19.45;17.35;;;;;;;;;;5109763;28;20043;-74
2023/09/16 08:10:20;;;;;;;19.60;16.40;;;;;;;;;;5108618;28;20043;-74
2023/09/16 08:12:46;;;;;;;19.33;17.20;;;;;;;;;;5104948;28;20050;-74
2023/09/16 08:15:12;;;;;;;20.20;15.75;;;;;;;;;;5116896;28;20067;-73
2023/09/16 08:17:38;;;;;;;16.40;14.13;;;;;;;;;;5102026;28;20051;-74
2023/09/16 08:20:08;;;;;;;21.38;16.60;;;;;;;;;;5108196;28;20044;-74
2023/09/16 08:22:34;;;;;;;20.25;16.65;;;;;;;;;;5096060;28;20139;-74
2023/09/16 08:25:00;;;;;;;18.60;14.60;;;;;;;;;;5104704;28;20484;-74
2023/09/16 08:27:26;;;;;;;17.15;15.23;;;;;;;;;;5111387;28;20042;-74
2023/09/16 08:29:55;;;;;;;19.90;15.30;;;;;;;;;;5099387;28;20144;-74
2023/09/16 08:32:23;;;;;;;15.27;13.13;;;;;;;;;;5104424;28;20035;-74
2023/09/16 08:34:52;;;;;;;16.92;14.60;;;;;;;;;;5114230;28;20518;-74
2023/09/16 08:37:18;;;;;;;18.95;15.80;;;;;;;;;;5105067;28;20467;-74
2023/09/16 08:39:44;;;;;;;17.48;15.13;;;;;;;;;;5100262;28;20052;-74
2023/09/16 08:42:13;;;;;;;18.27;14.80;;;;;;;;;;5105091;28;20039;-73
2023/09/16 08:44:44;;;;;;;16.70;14.50;;;;;;;;;;5107476;28;20052;-75
2023/09/16 08:47:13;;;;;;;17.95;14.95;;;;;;;;;;5106772;28;20044;-74
2023/09/16 08:49:43;;;;;;;16.50;13.98;;;;;;;;;;5099735;27;20346;-74
2023/09/16 08:52:11;;;;;;;15.52;13.18;;;;;;;;;;5096503;28;20074;-74
2023/09/16 08:54:38;;;;;;;15.30;13.27;;;;;;;;;;5112769;28;20126;-74
2023/09/16 08:57:05;;;;;;;15.27;12.95;;;;;;;;;;5113567;28;20046;-74
2023/09/16 08:59:31;;;;;;;18.40;14.52;;;;;;;;;;5107043;28;20503;-74
2023/09/16 09:01:57;;;;;;;15.25;13.60;;;;;;;;;;5107284;28;20062;-74
2023/09/16 09:04:24;;;;;;;14.32;12.82;;;;;;;;;;5111119;28;20141;-74
2023/09/16 09:06:50;;;;;;;13.55;12.02;;;;;;;;;;5100456;28;20040;-74
2023/09/16 09:09:16;;;;;;;14.48;12.02;;;;;;;;;;5103428;28;20043;-74
2023/09/16 09:11:42;;;;;;;14.50;12.23;;;;;;;;;;5107049;28;20119;-74
2023/09/16 09:14:10;;;;;;;12.70;11.30;;;;;;;;;;5107796;28;20043;-74
2023/09/16 09:16:37;;;;;;;14.05;11.13;;;;;;;;;;5111011;28;20052;-74
2023/09/16 09:19:05;;;;;;;14.10;12.65;;;;;;;;;;5116727;27;20040;-74
2023/09/16 09:21:32;;;;;;;13.95;12.48;;;;;;;;;;5115830;28;20126;-74
2023/09/16 09:23:58;;;;;;;12.68;11.38;;;;;;;;;;5101659;28;20054;-74
2023/09/16 09:26:25;;;;;;;15.15;11.88;;;;;;;;;;5102984;28;20044;-73
2023/09/16 09:28:51;;;;;;;14.90;11.65;;;;;;;;;;5099911;28;20055;-74
2023/09/16 09:31:17;;;;;;;13.45;10.90;;;;;;;;;;5115758;28;20075;-74
2023/09/16 09:33:48;;;;;;;12.50;10.60;;;;;;;;;;5115068;28;20055;-74
2023/09/16 09:36:17;;;;;;;11.85;10.57;;;;;;;;;;5115531;27;20173;-74
2023/09/16 09:38:44;;;;;;;12.63;11.30;;;;;;;;;;5101786;28;20431;-74
2023/09/16 09:41:10;;;;;;;11.38;9.77;;;;;;;;;;5100236;28;20051;-74
2023/09/16 09:43:36;;;;;;;12.65;10.13;;;;;;;;;;5098445;27;20040;-74
2023/09/16 09:46:02;;;;;;;12.35;10.95;;;;;;;;;;5099413;28;20044;-74
2023/09/16 09:48:30;;;;;;;11.40;9.50;;;;;;;;;;5112053;28;20050;-74
2023/09/16 09:50:56;;;;;;;11.45;8.43;;;;;;;;;;5110487;28;20051;-74
2023/09/16 09:53:22;;;;;;;9.80;7.22;;;;;;;;;;5110200;28;20043;-79
2023/09/16 09:55:49;;;;;;;10.95;8.50;;;;;;;;;;5115561;28;20047;-77
2023/09/16 09:58:15;;;;;;;13.10;8.48;;;;;;;;;;5113697;28;20050;-74
2023/09/16 10:00:51;;;;;;;9.95;8.95;;;;;;;;;;5114930;28;20158;-74
2023/09/16 10:03:20;;;;;;;11.27;9.02;;;;;;;;;;5107414;28;20042;-74
2023/09/16 10:05:46;;;;;;;11.13;7.78;;;;;;;;;;5114361;28;20479;-75
2023/09/16 10:08:13;;;;;;;9.10;7.43;;;;;;;;;;5101910;28;20216;-74
2023/09/16 10:10:40;;;;;;;9.68;7.85;;;;;;;;;;5114106;28;20051;-74
2023/09/16 10:13:06;;;;;;;9.43;8.40;;;;;;;;;;5110379;28;20399;-75
2023/09/16 10:15:33;;;;;;;10.25;8.88;;;;;;;;;;5114319;28;20529;-74
2023/09/16 10:17:59;;;;;;;11.88;9.55;;;;;;;;;;5103652;28;20044;-77
2023/09/16 10:20:29;;;;;;;11.57;9.80;;;;;;;;;;5102537;28;20056;-77
2023/09/16 10:22:56;;;;;;;12.07;9.77;;;;;;;;;;5112201;28;20042;-74
2023/09/16 10:25:23;;;;;;;10.52;9.43;;;;;;;;;;5107733;28;20530;-74
2023/09/16 10:28:01;;;;;;;9.10;8.20;;;;;;;;;;5113489;28;20120;-75
2023/09/16 10:30:27;;;;;;;10.25;8.10;;;;;;;;;;5113647;28;20104;-75
2023/09/16 10:32:54;;;;;;;9.75;7.40;;;;;;;;;;5100983;28;20425;-74
2023/09/16 10:35:20;;;;;;;9.52;7.63;;;;;;;;;;5113459;28;20065;-74
2023/09/16 10:37:48;;;;;;;10.75;8.00;;;;;;;;;;5113450;28;20069;-74
2023/09/16 10:40:14;;;;;;;9.98;8.52;;;;;;;;;;5108168;28;20077;-74
2023/09/16 10:42:41;;;;;;;10.68;8.30;;;;;;;;;;5104629;28;20108;-74
2023/09/16 10:45:11;;;;;;;11.20;8.80;;;;;;;;;;5104085;28;20152;-77
2023/09/16 10:47:37;;;;;;;9.20;7.90;;;;;;;;;;5099566;28;20089;-75
2023/09/16 10:50:03;;;;;;;9.18;8.18;;;;;;;;;;5106050;28;20051;-74
2023/09/16 10:52:41;;;;;;;11.48;8.70;;;;;;;;;;5113436;28;20062;-76
2023/09/16 10:55:15;;;;;;;9.57;7.85;;;;;;;;;;5094805;28;20108;-74
2023/09/16 10:57:50;;;;;;;10.82;9.02;;;;;;;;;;5107015;28;20055;-74
2023/09/16 11:00:21;;;;;;;11.73;9.33;;;;;;;;;;5102444;28;20551;-75
2023/09/16 11:02:51;;;;;;;10.50;8.77;;;;;;;;;;5103671;28;20114;-74
2023/09/16 11:05:17;;;;;;;9.65;7.68;;;;;;;;;;5101011;28;20101;-75
2023/09/16 11:07:43;;;;;;;9.63;8.15;;;;;;;;;;5102623;28;20549;-75
2023/09/16 11:10:10;;;;;;;14.68;9.52;;;;;;;;;;5103526;28;20044;-75
2023/09/16 11:12:37;;;;;;;11.85;9.30;;;;;;;;;;5103694;28;20122;-75
2023/09/16 11:15:07;;;;;;;10.85;9.35;;;;;;;;;;5098305;28;20051;-74
2023/09/16 11:17:33;;;;;;;10.00;8.98;;;;;;;;;;5112540;28;20513;-74
2023/09/16 11:20:32;;;;;;;10.30;9.18;;;;;;;;;;5113578;28;20051;-75
2023/09/16 11:23:00;;;;;;;10.00;8.85;;;;;;;;;;5074276;28;20176;-74
2023/09/16 11:25:30;;;;;;;11.55;9.30;;;;;;;;;;5099523;28;20375;-74
2023/09/16 11:27:56;;;;;;;11.65;9.10;;;;;;;;;;5112567;28;20384;-74
2023/09/16 11:30:22;;;;;;;11.25;8.32;;;;;;;;;;5113099;28;20047;-74
2023/09/16 11:32:57;;;;;;;10.57;9.07;;;;;;;;;;5105864;28;20059;-74
2023/09/16 11:35:26;;;;;;;11.93;8.60;;;;;;;;;;5112114;28;20068;-74
2023/09/16 11:37:53;;;;;;;8.93;7.20;;;;;;;;;;5109681;28;20521;-75
2023/09/16 11:40:19;;;;;;;8.30;7.30;;;;;;;;;;5102784;28;20047;-74
2023/09/16 11:42:45;;;;;;;8.48;6.53;;;;;;;;;;5093518;28;20435;-74
2023/09/16 11:45:11;;;;;;;9.25;6.85;;;;;;;;;;5112202;28;20440;-74
2023/09/16 11:47:37;;;;;;;8.68;7.45;;;;;;;;;;5113376;28;20149;-74
2023/09/16 11:50:19;;;;;;;9.02;6.70;;;;;;;;;;5113204;28;20075;-74
2023/09/16 11:52:45;;;;;;;8.40;7.22;;;;;;;;;;5110862;28;20055;-74
2023/09/16 11:55:11;;;;;;;7.97;6.80;;;;;;;;;;5100733;28;20472;-74
2023/09/16 11:57:39;;;;;;;8.73;7.45;;;;;;;;;;5108006;28;20044;-74
2023/09/16 12:00:05;;;;;;;9.60;7.57;;;;;;;;;;5110840;28;20051;-74
2023/09/16 12:02:32;;;;;;;8.98;6.07;;;;;;;;;;5097368;28;20093;-74
2023/09/16 12:04:59;;;;;;;6.55;5.15;;;;;;;;;;5094702;28;20063;-74
2023/09/16 12:07:25;;;;;;;7.47;5.47;;;;;;;;;;5096721;28;20098;-74
2023/09/16 12:09:51;;;;;;;8.25;6.30;;;;;;;;;;5110386;28;20050;-74
2023/09/16 12:12:17;;;;;;;8.25;6.53;;;;;;;;;;5101795;28;20036;-74
2023/09/16 12:14:43;;;;;;;7.25;6.10;;;;;;;;;;5112134;28;20051;-74
2023/09/16 12:17:10;;;;;;;8.23;5.95;;;;;;;;;;5112601;28;20039;-74
2023/09/16 12:19:36;;;;;;;7.38;5.97;;;;;;;;;;5114652;28;20051;-74
2023/09/16 12:22:02;;;;;;;7.75;5.22;;;;;;;;;;5110975;28;20468;-74
2023/09/16 12:24:28;;;;;;;8.13;6.15;;;;;;;;;;5107411;28;20065;-74
2023/09/16 12:26:54;;;;;;;7.05;5.95;;;;;;;;;;5094977;28;20487;-74
2023/09/16 12:29:21;;;;;;;8.40;6.53;;;;;;;;;;5106010;28;20048;-74
2023/09/16 12:31:47;;;;;;;8.55;6.72;;;;;;;;;;5119452;28;20043;-74
2023/09/16 12:34:18;;;;;;;10.75;6.80;;;;;;;;;;5096630;28;20040;-74
2023/09/16 12:36:48;;;;;;;8.95;7.00;;;;;;;;;;5100661;28;20064;-74
2023/09/16 12:39:14;;;;;;;7.72;6.38;;;;;;;;;;5105684;28;20052;-74
2023/09/16 12:41:42;;;;;;;7.68;6.07;;;;;;;;;;5104960;28;20040;-74
2023/09/16 12:44:09;;;;;;;10.25;8.90;;;;;;;;;;5095583;28;20071;-74
2023/09/16 12:46:35;;;;;;;11.02;8.40;;;;;;;;;;5112906;28;20047;-74
2023/09/16 12:49:01;;;;;;;17.45;9.40;;;;;;;;;;5107541;28;20499;-74
2023/09/16 12:51:28;;;;;;;11.35;8.15;;;;;;;;;;5115304;28;20050;-74
2023/09/16 12:53:54;;;;;;;10.70;9.38;;;;;;;;;;5103806;28;20426;-74
2023/09/16 12:56:20;;;;;;;11.13;9.48;;;;;;;;;;5109550;28;20072;-74
2023/09/16 12:58:48;;;;;;;9.95;8.93;;;;;;;;;;5098120;28;20445;-74
2023/09/16 13:01:18;;;;;;;11.52;8.85;;;;;;;;;;5116137;28;20048;-74
2023/09/16 13:03:44;;;;;;;10.77;9.68;;;;;;;;;;5114404;28;20047;-74
2023/09/16 13:06:10;;;;;;;9.80;8.77;;;;;;;;;;5101186;28;20483;-74
2023/09/16 13:08:37;;;;;;;12.27;8.85;;;;;;;;;;5102448;28;20446;-74
2023/09/16 13:11:03;;;;;;;10.68;9.40;;;;;;;;;;5104238;28;20057;-74
2023/09/16 13:13:30;;;;;;;10.43;9.32;;;;;;;;;;5097688;28;20044;-74
2023/09/16 13:15:57;;;;;;;10.10;8.95;;;;;;;;;;5107541;28;20040;-74
2023/09/16 13:18:24;;;;;;;10.70;9.60;;;;;;;;;;5103539;28;20056;-74
2023/09/16 13:20:54;;;;;;;10.85;8.98;;;;;;;;;;5095413;28;20509;-74
2023/09/16 13:23:24;;;;;;;10.05;9.05;;;;;;;;;;5110696;28;20039;-74
2023/09/16 13:25:51;;;;;;;9.45;8.35;;;;;;;;;;5115987;28;20055;-74
2023/09/16 13:28:19;;;;;;;9.05;8.15;;;;;;;;;;5105716;28;20036;-74
2023/09/16 13:30:49;;;;;;;10.60;8.32;;;;;;;;;;5109045;28;20391;-74
2023/09/16 13:33:16;;;;;;;9.32;8.32;;;;;;;;;;5116034;28;20075;-74
2023/09/16 13:35:45;;;;;;;9.98;8.30;;;;;;;;;;5115418;28;20057;-74
2023/09/16 13:38:12;;;;;;;8.48;7.68;;;;;;;;;;5104583;28;20074;-74
2023/09/16 13:40:38;;;;;;;9.13;7.00;;;;;;;;;;5095383;28;20418;-74
2023/09/16 13:43:05;;;;;;;13.02;8.93;;;;;;;;;;5109689;28;20048;-74
2023/09/16 13:45:31;;;;;;;10.48;9.30;;;;;;;;;;5107201;28;20052;-74
2023/09/16 13:48:07;;;;;;;12.82;9.38;;;;;;;;;;5115372;28;20050;-74
2023/09/16 13:50:33;;;;;;;10.95;9.30;;;;;;;;;;5112886;28;20093;-74
2023/09/16 13:52:59;;;;;;;12.18;8.95;;;;;;;;;;5100300;28;20058;-74
2023/09/16 13:55:26;;;;;;;9.70;8.57;;;;;;;;;;5103366;28;20040;-74
2023/09/16 13:57:56;;;;;;;11.52;9.30;;;;;;;;;;5105041;28;20044;-74
2023/09/16 14:00:22;;;;;;;18.15;9.88;;;;;;;;;;5115327;28;20044;-74
2023/09/16 14:02:48;;;;;;;10.32;9.20;;;;;;;;;;5097636;27;20089;-75
2023/09/16 14:05:14;;;;;;;10.38;8.95;;;;;;;;;;5110141;28;20088;-74
2023/09/16 14:07:40;;;;;;;9.00;7.97;;;;;;;;;;5096032;28;20360;-75
2023/09/16 14:10:06;;;;;;;10.60;9.00;;;;;;;;;;5102890;28;20200;-74
2023/09/16 14:12:33;;;;;;;9.52;7.43;;;;;;;;;;5102613;28;20040;-74
2023/09/16 14:14:59;;;;;;;11.40;9.90;;;;;;;;;;5099597;28;20447;-74
2023/09/16 14:17:25;;;;;;;10.02;9.02;;;;;;;;;;5109633;27;20479;-74
2023/09/16 14:19:51;;;;;;;11.55;9.05;;;;;;;;;;5095527;28;20040;-74
2023/09/16 14:22:18;;;;;;;11.90;9.88;;;;;;;;;;5108050;28;20051;-74
2023/09/16 14:24:44;;;;;;;10.63;9.63;;;;;;;;;;5113195;27;20071;-74
2023/09/16 14:27:11;;;;;;;10.95;9.88;;;;;;;;;;5114277;28;20058;-74